Time;durP1;ratioP1;P1;durP2;ratioP2;P2;SDS_P1;SDS_P2;PMS_P1;PMS_P2;Temp;Humidity;BMP_temperature;BMP_pressure;BME280_temperature;BME280_humidity;BME280_pressure;Samples;Min_cycle;Max_cycle;Signal;HPM_P1;HPM_P2
2021/06/24 00:01:34;;;;;;;15.90;10.65;;;;;;;19.70;68.51;100415.65;2026548;87;31108;-59
2021/06/24 00:04:41;;;;;;;15.90;10.05;;;;;;;19.73;68.48;100429.46;2026517;87;33031;-59
2021/06/24 00:07:44;;;;;;;17.02;9.53;;;;;;;19.74;68.46;100419.83;2018418;87;29439;-60
2021/06/24 00:10:46;;;;;;;15.28;8.55;;;;;;;19.76;68.38;100406.61;1985673;87;27571;-61
2021/06/24 00:13:48;;;;;;;15.43;8.68;;;;;;;19.77;68.37;100394.23;1985423;89;28723;-60
2021/06/24 00:16:50;;;;;;;14.87;10.38;;;;;;;19.77;68.35;100388.79;1985225;89;31234;-59
2021/06/24 00:19:52;;;;;;;18.20;10.10;;;;;;;19.76;68.29;100395.22;1987644;87;33918;-60
2021/06/24 00:22:53;;;;;;;22.07;12.30;;;;;;;19.76;68.34;100399.81;1985759;87;29385;-60
2021/06/24 00:25:56;;;;;;;15.15;9.55;;;;;;;19.76;68.28;100413.41;1985420;88;27563;-60
2021/06/24 00:29:00;;;;;;;16.57;10.08;;;;;;;19.77;68.27;100415.97;1986015;89;28777;-60
2021/06/24 00:32:03;;;;;;;23.45;11.12;;;;;;;19.77;68.21;100413.26;2013348;87;31174;-60
2021/06/24 00:35:07;;;;;;;15.40;10.63;;;;;;;19.78;68.13;100414.98;1988191;89;33034;-59
2021/06/24 00:38:09;;;;;;;19.42;10.45;;;;;;;19.78;68.05;100423.14;1993892;89;29590;-60
2021/06/24 00:41:12;;;;;;;26.30;11.55;;;;;;;19.77;68.06;100430.08;1993847;89;27583;-59
2021/06/24 00:44:14;;;;;;;17.95;10.58;;;;;;;19.76;68.05;100431.07;2034087;87;28728;-59
2021/06/24 00:47:16;;;;;;;20.60;11.38;;;;;;;19.77;68.01;100426.00;2038279;87;31189;-60
2021/06/24 00:50:17;;;;;;;22.80;11.28;;;;;;;19.79;68.13;100432.14;2038295;87;33093;-61
2021/06/24 00:53:19;;;;;;;15.50;11.10;;;;;;;19.80;68.03;100461.05;2012084;87;29449;-60
2021/06/24 00:56:33;;;;;;;16.30;9.75;;;;;;;19.82;68.08;100480.34;1993907;89;27658;-61
2021/06/24 00:59:36;;;;;;;14.03;8.83;;;;;;;19.84;68.00;100483.79;1993830;89;28889;-60
2021/06/24 01:02:39;;;;;;;14.10;9.80;;;;;;;19.86;68.07;100487.20;1993785;89;32034;-60
2021/06/24 01:05:41;;;;;;;17.77;9.65;;;;;;;19.91;68.08;100499.59;1995406;87;33175;-59
2021/06/24 01:08:43;;;;;;;18.15;10.58;;;;;;;19.94;68.04;100498.81;2029860;87;29325;-60
2021/06/24 01:11:46;;;;;;;16.52;9.30;;;;;;;19.97;67.96;100502.64;2029625;87;27592;-59
2021/06/24 01:14:50;;;;;;;20.12;8.83;;;;;;;19.99;67.90;100522.41;2010628;87;28690;-61
2021/06/24 01:17:54;;;;;;;16.80;10.05;;;;;;;20.03;67.98;100529.31;2023532;87;30920;-61
2021/06/24 01:20:56;;;;;;;17.17;9.47;;;;;;;20.07;68.08;100532.63;2030064;87;33955;-60
2021/06/24 01:23:58;;;;;;;17.48;9.38;;;;;;;20.09;68.04;100557.84;1994130;87;30099;-59
2021/06/24 01:26:59;;;;;;;19.65;11.78;;;;;;;20.12;68.37;100604.30;1993891;88;27552;-60
2021/06/24 01:30:01;;;;;;;28.07;13.58;;;;;;;20.14;68.76;100618.64;1991935;87;28756;-61
2021/06/24 01:33:05;;;;;;;22.35;13.03;;;;;;;20.09;69.42;100618.19;1985443;89;31848;-61
2021/06/24 01:36:08;;;;;;;18.57;12.40;;;;;;;20.02;69.84;100609.17;1985420;89;33988;-61
2021/06/24 01:39:12;;;;;;;14.45;10.03;;;;;;;19.96;70.17;100609.68;2001052;87;30243;-61
2021/06/24 01:42:14;;;;;;;12.88;9.35;;;;;;;19.89;70.56;100601.19;2026955;87;27539;-61
2021/06/24 01:45:16;;;;;;;14.85;9.43;;;;;;;19.83;70.70;100600.81;2026745;87;29560;-61
2021/06/24 01:48:18;;;;;;;15.40;8.53;;;;;;;19.79;71.02;100576.22;2026729;87;31904;-61
2021/06/24 01:51:22;;;;;;;13.03;8.75;;;;;;;19.72;71.18;100524.23;2026692;87;33019;-61
2021/06/24 01:54:23;;;;;;;12.47;9.13;;;;;;;19.60;71.39;100512.57;2017484;87;29382;-62
2021/06/24 01:57:25;;;;;;;12.47;9.45;;;;;;;19.53;71.59;100517.63;1985520;89;27655;-62
2021/06/24 02:00:27;;;;;;;11.35;8.68;;;;;;;19.46;71.86;100542.25;1985446;89;28736;-61
2021/06/24 02:03:33;;;;;;;12.33;8.63;;;;;;;19.39;71.88;100555.97;1985534;89;31177;-62
2021/06/24 02:06:35;;;;;;;13.93;8.85;;;;;;;19.35;72.32;100559.95;1990656;87;33972;-62
2021/06/24 02:09:37;;;;;;;12.05;7.70;;;;;;;19.31;72.42;100554.40;2026381;87;30157;-62
2021/06/24 02:12:40;;;;;;;20.00;7.72;;;;;;;19.23;72.51;100589.83;2026674;87;27568;-62
2021/06/24 02:15:42;;;;;;;10.55;6.97;;;;;;;19.18;72.74;100608.38;2026643;87;28731;-62
2021/06/24 02:18:45;;;;;;;11.35;7.47;;;;;;;19.13;72.79;100618.73;1999407;87;31029;-62
2021/06/24 02:21:47;;;;;;;11.30;7.05;;;;;;;19.10;73.01;100604.05;2026608;87;33792;-62
2021/06/24 02:24:49;;;;;;;10.23;6.17;;;;;;;19.07;73.25;100583.92;2026640;87;30076;-61
2021/06/24 02:27:51;;;;;;;9.70;6.87;;;;;;;18.97;73.19;100555.30;2014800;87;27552;-62
2021/06/24 02:30:53;;;;;;;13.22;6.03;;;;;;;18.88;73.54;100516.14;1987004;89;29283;-62
2021/06/24 02:33:55;;;;;;;10.93;6.90;;;;;;;18.75;73.78;100467.92;1993733;89;31991;-63
2021/06/24 02:36:58;;;;;;;11.45;6.62;;;;;;;18.59;73.92;100415.41;1993720;89;32956;-62
2021/06/24 02:40:00;;;;;;;11.65;5.67;;;;;;;18.41;75.08;100362.15;2037174;87;29296;-63
2021/06/24 02:43:02;;;;;;;14.20;8.18;;;;;;;18.18;76.69;100337.79;2038284;87;27551;-62
2021/06/24 02:46:04;;;;;;;26.33;7.87;;;;;;;17.96;77.01;100350.80;2029809;87;29329;-60
2021/06/24 02:49:05;;;;;;;12.80;7.45;;;;;;;17.80;77.20;100296.47;2029717;87;31877;-61
2021/06/24 02:52:07;;;;;;;9.13;7.33;;;;;;;17.65;78.38;100181.20;2029826;87;33048;-61
2021/06/24 02:55:11;;;;;;;11.18;8.35;;;;;;;17.46;79.89;100137.53;1994110;87;29315;-62
2021/06/24 02:58:13;;;;;;;9.60;8.60;;;;;;;17.21;81.35;100196.02;1993546;89;27563;-62
2021/06/24 03:01:16;;;;;;;10.93;8.15;;;;;;;17.21;81.35;100196.02;1993724;89;29483;-63
2021/06/24 03:04:21;;;;;;;10.93;9.05;;;;;;;17.14;81.27;100209.14;1993709;89;31022;-62
2021/06/24 03:07:24;;;;;;;19.05;12.10;;;;;;;17.11;81.50;100220.23;2026500;87;33667;-63
2021/06/24 03:10:27;;;;;;;13.08;10.43;;;;;;;17.09;82.46;100202.75;2038149;87;29235;-62
2021/06/24 03:13:30;;;;;;;12.45;10.82;;;;;;;17.09;82.31;100158.59;2038227;87;27602;-63
2021/06/24 03:16:32;;;;;;;15.35;11.63;;;;;;;17.05;82.50;100190.94;2023171;87;28634;-62
2021/06/24 03:19:34;;;;;;;12.90;10.98;;;;;;;17.05;82.50;100190.94;1993680;89;31907;-61
2021/06/24 03:22:36;;;;;;;13.18;11.05;;;;;;;17.07;82.38;100241.25;1993679;89;33615;-62
2021/06/24 03:25:38;;;;;;;13.50;10.90;;;;;;;17.11;81.93;100231.06;1994763;87;29452;-62
2021/06/24 03:28:40;;;;;;;15.10;10.65;;;;;;;17.14;81.70;100239.80;2037119;87;27552;-62
2021/06/24 03:31:42;;;;;;;19.35;10.68;;;;;;;17.17;81.88;100234.63;1989365;89;28468;-64
2021/06/24 03:34:44;;;;;;;12.07;10.72;;;;;;;17.21;81.60;100239.33;1922416;92;31173;-62
2021/06/24 03:37:45;;;;;;;10.93;9.78;;;;;;;17.23;81.71;100269.35;1988633;89;32955;-62
2021/06/24 03:40:47;;;;;;;19.50;12.68;;;;;;;17.25;82.26;100236.25;1999282;89;30360;-62
2021/06/24 03:43:50;;;;;;;17.80;14.25;;;;;;;17.23;82.17;100168.30;1961110;90;27525;-61
2021/06/24 03:46:52;;;;;;;17.02;13.93;;;;;;;17.11;82.68;100130.91;2033036;87;28897;-61
2021/06/24 03:49:53;;;;;;;14.93;13.48;;;;;;;17.19;81.94;100226.41;2032885;87;31269;-61
2021/06/24 03:52:55;;;;;;;15.85;13.05;;;;;;;17.31;81.88;100244.37;1996116;87;33022;-62
2021/06/24 03:55:57;;;;;;;16.45;14.13;;;;;;;17.35;81.82;100241.81;1988790;89;29552;-61
2021/06/24 03:58:59;;;;;;;15.43;13.93;;;;;;;17.37;81.76;100245.73;1924944;90;27545;-61
2021/06/24 04:02:01;;;;;;;15.80;14.25;;;;;;;17.38;81.71;100253.72;1988659;89;28897;-61
2021/06/24 04:05:03;;;;;;;18.57;16.23;;;;;;;17.40;81.69;100220.62;1988666;89;31149;-62
2021/06/24 04:08:07;;;;;;;16.17;14.53;;;;;;;17.40;81.75;100161.04;1938612;90;34014;-61
2021/06/24 04:11:09;;;;;;;18.62;15.83;;;;;;;17.39;81.84;100156.61;2033032;87;29327;-62
2021/06/24 04:14:11;;;;;;;18.12;16.35;;;;;;;17.42;81.82;100240.83;2033355;87;27476;-62
2021/06/24 04:17:13;;;;;;;19.87;17.65;;;;;;;17.50;81.85;100276.78;2027595;87;28644;-62
2021/06/24 04:20:15;;;;;;;20.25;18.32;;;;;;;17.50;81.85;100276.78;1943174;90;31901;-62
2021/06/24 04:23:17;;;;;;;17.95;16.25;;;;;;;17.54;81.88;100306.70;2033162;87;34039;-62
2021/06/24 04:26:19;;;;;;;19.02;16.48;;;;;;;17.57;81.85;100332.17;2033155;87;29326;-61
2021/06/24 04:29:21;;;;;;;17.90;16.00;;;;;;;17.58;81.96;100368.64;2001517;87;27463;-62
2021/06/24 04:32:26;;;;;;;17.27;14.80;;;;;;;17.61;81.94;100369.77;1994332;87;28736;-59
2021/06/24 04:35:28;;;;;;;16.60;14.80;;;;;;;17.68;82.03;100334.92;1994037;89;31193;-61
2021/06/24 04:38:30;;;;;;;14.28;12.98;;;;;;;17.73;82.06;100314.23;2007825;87;33576;-60
2021/06/24 04:41:32;;;;;;;13.88;12.50;;;;;;;17.83;82.19;100318.42;2038302;87;30116;-61
2021/06/24 04:44:36;;;;;;;16.67;11.80;;;;;;;17.83;82.19;100318.42;2038462;87;27600;-62
2021/06/24 04:47:39;;;;;;;14.30;12.37;;;;;;;17.86;82.00;100319.03;2026989;87;29691;-60
2021/06/24 04:50:41;;;;;;;12.65;11.38;;;;;;;17.90;82.08;100337.25;2024453;87;31089;-60
2021/06/24 04:53:49;;;;;;;13.20;12.00;;;;;;;17.95;82.27;100333.69;2026943;87;32943;-60
2021/06/24 04:56:54;;;;;;;13.85;11.90;;;;;;;18.06;82.27;100327.44;2026473;87;27755;-61
2021/06/24 04:59:56;;;;;;;12.30;11.00;;;;;;;18.06;82.27;100327.44;2002623;87;27590;-62
2021/06/24 05:02:59;;;;;;;10.68;9.73;;;;;;;18.11;82.23;100345.56;1982759;88;28770;-64
2021/06/24 05:06:04;;;;;;;10.93;9.83;;;;;;;18.16;82.46;100340.61;1982976;89;31895;-62
2021/06/24 05:09:07;;;;;;;;;;;;;;;18.22;82.32;100329.75;1992847;87;32960;-65
2021/06/24 05:12:11;;;;;;;10.23;8.85;;;;;;;18.27;82.33;100329.40;2026804;87;29527;-65
2021/06/24 05:15:15;;;;;;;12.55;8.75;;;;;;;18.32;82.34;100329.86;2027388;87;27496;-68
2021/06/24 05:18:19;;;;;;;9.98;8.00;;;;;;;18.36;82.30;100316.42;2027214;87;29518;-68
2021/06/24 05:21:22;;;;;;;7.72;6.47;;;;;;;18.43;82.39;100315.42;1987332;87;31014;-70
2021/06/24 05:24:27;;;;;;;6.87;5.92;;;;;;;18.47;82.23;100310.12;1982934;89;33084;-65
2021/06/24 05:27:31;;;;;;;7.95;5.67;;;;;;;18.53;82.31;100305.04;1982984;89;29397;-63
2021/06/24 05:30:35;;;;;;;9.08;6.15;;;;;;;18.60;82.29;100303.19;1984757;89;27697;-67
2021/06/24 05:33:40;;;;;;;7.95;5.80;;;;;;;18.70;82.31;100312.77;1993975;88;29480;-63
2021/06/24 05:36:44;;;;;;;7.10;4.47;;;;;;;18.77;82.32;100307.18;2009092;87;31181;-62
2021/06/24 05:43:18;;;;;;;5.37;4.33;;;;;;;18.79;81.72;100294.34;1741999;101;27878;-61
2021/06/24 06:21:37;;;;;;;11.55;5.33;;;;;;;19.10;81.48;100305.33;1706386;104;27666;-60
2021/06/24 06:24:39;;;;;;;5.83;4.45;;;;;;;19.24;81.87;100313.15;1700903;104;31146;-60
2021/06/24 06:27:42;;;;;;;6.37;4.80;;;;;;;19.26;81.50;100317.11;1851159;94;33300;-61
2021/06/24 06:30:49;;;;;;;6.95;4.25;;;;;;;19.25;81.27;100319.47;1875269;93;29523;-60
2021/06/24 06:33:51;;;;;;;5.75;4.40;;;;;;;19.33;81.45;100328.31;1966906;90;27658;-60
2021/06/24 06:36:53;;;;;;;8.60;4.58;;;;;;;19.38;81.34;100324.67;1966795;90;29539;-62
2021/06/24 06:39:55;;;;;;;7.72;4.75;;;;;;;19.44;81.42;100329.08;1966830;90;30737;-60
2021/06/24 06:42:58;;;;;;;8.58;5.00;;;;;;;19.53;81.15;100334.20;1966766;90;33065;-62
2021/06/24 06:46:03;;;;;;;10.95;5.83;;;;;;;19.59;81.27;100323.33;1966821;90;30380;-67
2021/06/24 06:49:07;;;;;;;11.25;5.67;;;;;;;19.69;81.31;100318.79;1975153;89;27591;-62
2021/06/24 06:52:10;;;;;;;6.22;5.37;;;;;;;19.80;81.32;100306.97;1975205;89;29220;-62
2021/06/24 06:55:15;;;;;;;10.55;5.92;;;;;;;19.92;81.07;100307.78;1976854;89;31097;-60
2021/06/24 06:58:22;;;;;;;11.40;6.78;;;;;;;20.04;80.76;100308.52;1990474;89;33112;-63
2021/06/24 07:01:27;;;;;;;12.25;6.95;;;;;;;20.11;80.66;100319.22;1990379;89;30169;-61
2021/06/24 07:04:29;;;;;;;8.05;6.33;;;;;;;20.24;80.59;100328.98;1990856;89;27572;-61
2021/06/24 07:07:31;;;;;;;8.63;6.65;;;;;;;20.36;80.60;100330.59;1979362;89;29291;-63
2021/06/24 07:10:35;;;;;;;7.25;6.42;;;;;;;20.48;80.73;100341.74;1966636;90;30538;-61
2021/06/24 07:13:38;;;;;;;8.48;6.08;;;;;;;20.54;80.08;100338.08;1966276;90;33840;-62
2021/06/24 07:16:42;;;;;;;9.03;7.37;;;;;;;20.50;79.53;100342.95;1959871;90;29339;-64
2021/06/24 07:19:44;;;;;;;7.47;6.77;;;;;;;20.54;79.99;100344.40;1964853;90;27947;-63
2021/06/24 07:22:49;;;;;;;7.40;6.22;;;;;;;20.56;79.59;100347.84;1963898;90;28668;-59
2021/06/24 07:26:10;;;;;;;10.80;6.15;;;;;;;20.55;79.34;100351.56;1964529;90;31279;-64
2021/06/24 07:29:12;;;;;;;8.25;6.72;;;;;;;20.57;79.45;100352.77;1951065;90;33113;-62
2021/06/24 07:32:13;;;;;;;8.55;7.67;;;;;;;20.59;79.65;100353.02;1902463;93;29814;-62
2021/06/24 07:35:15;;;;;;;9.53;7.72;;;;;;;20.67;79.81;100351.44;1967071;90;27852;-59
2021/06/24 07:38:17;;;;;;;9.13;7.80;;;;;;;20.70;79.48;100353.36;1955778;90;28707;-61
2021/06/24 07:41:23;;;;;;;10.13;8.63;;;;;;;20.70;79.10;100338.39;1932300;92;31950;-60
2021/06/24 07:44:24;;;;;;;12.25;8.85;;;;;;;20.74;78.97;100338.99;1932255;92;33804;-61
2021/06/24 07:47:26;;;;;;;10.65;8.20;;;;;;;20.82;79.27;100342.40;1932459;91;29472;-62
2021/06/24 07:50:27;;;;;;;10.23;7.72;;;;;;;20.90;79.44;100357.51;1936828;91;27588;-62
2021/06/24 07:53:29;;;;;;;12.40;7.83;;;;;;;20.96;78.98;100355.59;1932268;92;28614;-62
2021/06/24 07:56:31;;;;;;;9.95;8.48;;;;;;;21.04;78.99;100354.88;1932276;92;31995;-62
2021/06/24 07:59:34;;;;;;;9.58;8.20;;;;;;;21.07;78.89;100347.27;1932266;92;34041;-63
2021/06/24 08:02:36;;;;;;;13.68;9.10;;;;;;;21.13;78.21;100354.00;1936382;91;29394;-62
2021/06/24 08:05:38;;;;;;;9.18;8.25;;;;;;;21.16;78.37;100352.36;1937890;91;27702;-62
2021/06/24 08:08:40;;;;;;;12.07;10.13;;;;;;;21.29;78.46;100355.28;1937826;91;28625;-61
2021/06/24 08:11:42;;;;;;;14.28;9.43;;;;;;;21.43;78.37;100345.29;1935312;91;31961;-61
2021/06/24 08:14:43;;;;;;;12.65;9.25;;;;;;;21.57;78.52;100340.41;1932262;91;33513;-62
2021/06/24 08:17:45;;;;;;;11.05;9.40;;;;;;;21.69;78.42;100331.08;1944664;91;30143;-60
2021/06/24 08:20:48;;;;;;;12.07;9.43;;;;;;;21.84;78.37;100339.66;1948838;90;27630;-61
2021/06/24 08:23:49;;;;;;;11.93;10.10;;;;;;;21.87;77.47;100346.15;1977133;90;28737;-62
2021/06/24 08:26:51;;;;;;;12.23;10.03;;;;;;;21.89;77.90;100354.20;1977937;89;32089;-61
2021/06/24 08:29:54;;;;;;;12.73;10.40;;;;;;;21.90;77.67;100354.56;1962864;89;33071;-63
2021/06/24 08:32:56;;;;;;;14.58;10.32;;;;;;;21.90;77.67;100355.41;1944914;91;29387;-62
2021/06/24 08:36:00;;;;;;;16.65;11.48;;;;;;;21.96;77.67;100347.12;1947152;89;27651;-62
2021/06/24 08:39:01;;;;;;;14.50;11.20;;;;;;;21.96;77.37;100356.19;1945455;91;28758;-63
2021/06/24 08:42:04;;;;;;;12.78;9.50;;;;;;;22.00;77.26;100356.73;1969271;89;32281;-62
2021/06/24 08:45:08;;;;;;;14.28;11.60;;;;;;;22.07;77.16;100355.63;1972069;90;33007;-62
2021/06/24 08:48:16;;;;;;;17.40;10.60;;;;;;;22.23;77.68;100346.30;1972421;88;29364;-62
2021/06/24 08:51:19;;;;;;;13.55;10.38;;;;;;;22.41;77.17;100351.82;1976155;88;27645;-61
2021/06/24 08:54:21;;;;;;;13.93;9.90;;;;;;;22.52;76.83;100355.37;1993707;89;28619;-62
2021/06/24 08:57:28;;;;;;;14.45;10.23;;;;;;;22.62;76.71;100364.35;1975525;89;31023;-62
2021/06/24 09:00:33;;;;;;;13.98;10.23;;;;;;;22.68;76.52;100356.92;1972053;90;33861;-61
2021/06/24 09:04:01;;;;;;;15.05;11.57;;;;;;;22.75;76.46;100363.98;1971882;90;27642;-61
2021/06/24 09:10:21;;;;;;;15.05;11.48;;;;;;;22.96;75.19;100360.11;1948392;87;27575;-63
2021/06/24 09:13:51;;;;;;;15.03;10.98;;;;;;;23.10;75.65;100360.92;1959442;90;31175;-65
2021/06/24 09:16:44;;;;;;;14.03;9.95;;;;;;;23.16;74.80;100360.80;1950637;85;28993;-65
2021/06/24 09:26:15;;;;;;;16.90;10.75;;;;;;;23.45;74.98;100357.84;1961519;88;27627;-65
2021/06/24 09:29:18;;;;;;;12.33;9.38;;;;;;;23.74;73.94;100351.20;1944136;90;31128;-64
2021/06/24 09:32:33;;;;;;;14.00;9.10;;;;;;;24.08;73.94;100355.87;1991757;88;33264;-63
2021/06/24 09:35:36;;;;;;;10.23;8.50;;;;;;;24.32;72.47;100346.55;1992875;88;29391;-64
2021/06/24 09:38:43;;;;;;;9.65;8.65;;;;;;;24.41;72.24;100345.55;1963238;90;27632;-64
2021/06/24 09:42:10;;;;;;;12.95;9.40;;;;;;;24.49;71.71;100348.33;1968804;90;43018;-64
2021/06/24 09:45:14;;;;;;;9.08;6.78;;;;;;;24.50;71.10;100347.80;1966913;90;30510;-64
2021/06/24 09:48:16;;;;;;;9.65;8.68;;;;;;;24.50;71.80;100353.28;1961007;90;35218;-65
2021/06/24 09:51:24;;;;;;;10.15;9.00;;;;;;;24.56;71.12;100344.41;1960929;90;30278;-65
2021/06/24 09:54:53;;;;;;;14.18;7.78;;;;;;;24.55;71.06;100346.80;1961004;90;27909;-65
2021/06/24 09:58:16;;;;;;;6.72;5.95;;;;;;;24.62;70.91;100353.84;2005536;87;27581;-64
2021/06/24 10:01:37;;;;;;;6.85;5.58;;;;;;;24.77;70.88;100357.67;1991710;89;30967;-65
2021/06/24 10:04:44;;;;;;;6.83;6.05;;;;;;;24.93;71.41;100358.23;2063574;86;33134;-64
2021/06/24 10:07:47;;;;;;;7.70;5.75;;;;;;;25.22;71.61;100350.55;2025615;87;30180;-64
2021/06/24 10:10:51;;;;;;;7.05;5.03;;;;;;;25.51;71.12;100343.17;1966947;89;27661;-66
2021/06/24 10:13:54;;;;;;;7.33;5.30;;;;;;;25.66;70.73;100341.09;2025572;87;28625;-65
2021/06/24 10:16:59;;;;;;;7.33;6.30;;;;;;;25.78;69.34;100338.35;2026994;87;30996;-64
2021/06/24 10:20:06;;;;;;;7.95;6.40;;;;;;;25.89;69.09;100342.62;2031307;87;33875;-65
2021/06/24 10:23:13;;;;;;;8.63;5.90;;;;;;;25.98;67.67;100339.33;2000870;88;29461;-64
2021/06/24 10:26:16;;;;;;;8.38;6.37;;;;;;;26.03;67.76;100335.02;1993221;89;27769;-65
2021/06/24 10:29:21;;;;;;;11.03;6.72;;;;;;;26.05;68.27;100324.72;1985955;89;29617;-65
2021/06/24 10:32:30;;;;;;;7.62;6.17;;;;;;;26.18;67.47;100330.19;2020193;87;31234;-65
2021/06/24 10:35:35;;;;;;;8.75;6.08;;;;;;;26.30;67.19;100327.38;1967974;89;33963;-65
2021/06/24 10:38:42;;;;;;;8.30;6.42;;;;;;;26.51;66.73;100329.49;2019815;87;29399;-68
2021/06/24 10:42:11;;;;;;;7.40;6.20;;;;;;;26.78;66.29;100321.79;1977845;88;27905;-65
2021/06/24 10:45:18;;;;;;;8.15;4.85;;;;;;;27.02;65.99;100313.04;2017421;87;28897;-65
2021/06/24 10:48:30;;;;;;;7.50;5.42;;;;;;;27.22;65.37;100312.00;1985959;89;31186;-65
2021/06/24 10:51:34;;;;;;;8.93;6.90;;;;;;;27.38;64.97;100313.77;2031626;87;32928;-65
2021/06/24 10:54:42;;;;;;;7.53;6.42;;;;;;;27.35;64.00;100312.75;2028686;87;33083;-65
2021/06/24 10:57:44;;;;;;;8.95;5.90;;;;;;;27.30;63.65;100323.48;2054406;86;27574;-66
2021/06/24 11:00:59;;;;;;;6.72;6.00;;;;;;;27.26;63.70;100318.02;2025368;87;28927;-66
2021/06/24 11:04:01;;;;;;;7.55;6.00;;;;;;;27.36;63.57;100315.84;2005627;87;30979;-68
2021/06/24 11:07:35;;;;;;;7.58;5.60;;;;;;;27.44;63.04;100315.78;2059957;86;33751;-68
2021/06/24 11:11:06;;;;;;;9.50;6.15;;;;;;;27.45;62.48;100309.73;2041452;84;30201;-66
2021/06/24 11:14:20;;;;;;;6.87;5.35;;;;;;;27.46;62.25;100303.23;2062985;84;27986;-64
2021/06/24 11:17:45;;;;;;;7.90;5.22;;;;;;;27.38;61.47;100308.80;2060856;84;28714;-65
2021/06/24 11:20:50;;;;;;;6.85;4.75;;;;;;;27.21;61.94;100302.58;2025722;86;31154;-64
2021/06/24 11:24:04;;;;;;;9.75;4.47;;;;;;;27.18;62.34;100304.31;2061296;84;33932;-66
2021/06/24 11:27:12;;;;;;;7.92;4.53;;;;;;;27.28;62.25;100299.43;2064747;84;29619;-65
2021/06/24 11:30:16;;;;;;;8.25;4.20;;;;;;;27.43;61.41;100307.19;2067502;84;27599;-67
2021/06/24 11:33:17;;;;;;;6.78;4.28;;;;;;;27.53;60.99;100311.08;2060695;84;28687;-67
2021/06/24 11:36:20;;;;;;;5.30;3.95;;;;;;;27.59;60.90;100310.31;2049081;84;31091;-67
2021/06/24 11:39:33;;;;;;;5.70;3.65;;;;;;;27.64;61.09;100315.78;2047842;86;33100;-66
2021/06/24 11:42:43;;;;;;;7.45;4.17;;;;;;;27.72;60.54;100312.42;2086088;84;29416;-66
2021/06/24 11:45:45;;;;;;;5.53;3.85;;;;;;;27.79;59.99;100309.77;2039726;86;27591;-66
2021/06/24 12:05:40;;;;;;;7.20;5.35;;;;;;;28.07;59.16;100310.99;2031131;87;28710;-67
2021/06/24 12:08:42;;;;;;;5.85;4.20;;;;;;;28.11;58.72;100304.94;2031557;87;31013;-69
2021/06/24 12:11:44;;;;;;;8.55;4.85;;;;;;;28.12;58.31;100300.30;1997695;89;33081;-68
2021/06/24 12:14:49;;;;;;;5.78;4.22;;;;;;;28.10;57.93;100300.47;2015248;87;29918;-69
2021/06/24 12:17:51;;;;;;;6.90;4.03;;;;;;;28.00;57.69;100288.34;1992314;88;27540;-65
2021/06/24 12:21:03;;;;;;;6.95;5.10;;;;;;;27.86;56.32;100281.81;1992322;89;28749;-65
2021/06/24 12:24:05;;;;;;;4.78;4.35;;;;;;;27.69;57.05;100278.92;1992323;89;31052;-67
2021/06/24 12:27:21;;;;;;;6.08;4.55;;;;;;;27.57;57.68;100275.78;1992269;89;33022;-66
2021/06/24 12:30:36;;;;;;;6.75;4.55;;;;;;;27.41;57.02;100274.87;1992439;89;29390;-65
2021/06/24 12:33:40;;;;;;;6.50;4.45;;;;;;;27.21;57.15;100277.82;1989684;88;27803;-65
2021/06/24 12:36:45;;;;;;;5.95;4.87;;;;;;;27.05;57.38;100279.68;2003279;87;27642;-69
2021/06/24 12:39:47;;;;;;;7.95;4.83;;;;;;;26.97;57.30;100283.89;2015297;86;31045;-66
2021/06/24 12:42:57;;;;;;;4.97;4.47;;;;;;;26.99;58.02;100289.53;2038200;86;33718;-68
2021/06/24 12:46:02;;;;;;;6.65;4.87;;;;;;;27.10;58.09;100291.49;2022423;87;29319;-67
2021/06/24 12:49:15;;;;;;;4.65;4.05;;;;;;;27.15;57.69;100293.17;2010692;87;27604;-68
2021/06/24 12:52:31;;;;;;;6.53;4.77;;;;;;;27.14;57.19;100295.05;2004098;88;28640;-70
2021/06/24 12:55:52;;;;;;;4.78;4.03;;;;;;;27.14;57.04;100295.05;2006609;88;31027;-66
2021/06/24 12:59:09;;;;;;;5.95;4.62;;;;;;;27.17;57.16;100297.98;2008051;88;33107;-69
2021/06/24 13:02:11;;;;;;;5.35;4.75;;;;;;;27.26;57.40;100300.13;2010366;88;29427;-69
2021/06/24 13:05:25;;;;;;;5.37;4.87;;;;;;;27.43;56.97;100299.44;2014617;88;27483;-69
2021/06/24 13:08:27;;;;;;;6.47;4.90;;;;;;;27.60;57.00;100299.64;2023009;87;28720;-69
2021/06/24 13:11:34;;;;;;;5.08;3.90;;;;;;;27.74;56.16;100297.95;2008857;88;31168;-68
2021/06/24 13:14:41;;;;;;;6.30;4.35;;;;;;;27.76;55.42;100303.25;2007928;88;33788;-65
2021/06/24 13:17:46;;;;;;;4.97;4.50;;;;;;;27.73;55.50;100296.74;1988984;87;29335;-68
2021/06/24 13:20:58;;;;;;;6.15;4.37;;;;;;;27.73;55.63;100298.99;1979005;89;27530;-65
2021/06/24 13:24:12;;;;;;;5.50;3.80;;;;;;;27.66;54.98;100296.65;1998756;88;28692;-63
2021/06/24 13:27:23;;;;;;;5.60;3.87;;;;;;;27.53;55.12;100297.33;1994262;88;31184;-65
2021/06/24 13:30:25;;;;;;;11.53;4.62;;;;;;;27.48;54.90;100296.15;1988589;88;33969;-65
2021/06/24 13:33:40;;;;;;;5.83;4.35;;;;;;;27.44;55.45;100290.14;1987456;88;29319;-69
2021/06/24 13:36:44;;;;;;;5.87;4.17;;;;;;;27.30;54.91;100283.59;2010049;88;27608;-64
2021/06/24 13:39:50;;;;;;;5.50;3.85;;;;;;;27.15;54.94;100286.30;2012217;88;28876;-66
2021/06/24 13:43:02;;;;;;;4.83;4.33;;;;;;;26.99;54.93;100277.66;2006516;88;31907;-68
2021/06/24 13:46:04;;;;;;;5.47;4.53;;;;;;;26.81;54.84;100270.58;2000183;88;33572;-68
2021/06/24 13:49:08;;;;;;;5.53;3.60;;;;;;;26.71;55.17;100272.70;2014228;88;29291;-66
2021/06/24 13:52:12;;;;;;;8.20;4.70;;;;;;;26.66;55.32;100270.51;2007025;87;33120;-66
2021/06/24 13:55:21;;;;;;;8.08;5.15;;;;;;;26.56;55.17;100269.88;2003111;88;28706;-67
2021/06/24 13:58:25;;;;;;;6.90;5.22;;;;;;;26.48;55.47;100274.06;1969966;89;31108;-70
2021/06/24 14:01:28;;;;;;;8.57;5.17;;;;;;;26.36;55.55;100266.24;1967067;89;33983;-67
2021/06/24 14:04:32;;;;;;;5.95;5.00;;;;;;;26.27;55.92;100271.42;1983340;89;29902;-66
2021/06/24 14:07:34;;;;;;;7.37;4.75;;;;;;;26.23;56.51;100270.94;1981428;89;27658;-65
2021/06/24 14:10:35;;;;;;;6.80;5.03;;;;;;;26.20;56.01;100260.31;1983231;89;29414;-64
2021/06/24 14:13:46;;;;;;;5.85;4.80;;;;;;;26.18;56.03;100265.66;1983259;89;31868;-71
2021/06/24 14:16:53;;;;;;;5.47;4.95;;;;;;;26.23;56.54;100262.70;1981592;89;33027;-68
2021/06/24 14:19:54;;;;;;;13.22;5.67;;;;;;;26.33;56.36;100261.11;1960547;89;29469;-71
2021/06/24 14:22:59;;;;;;;10.38;5.47;;;;;;;26.42;56.52;100249.55;1998006;89;27519;-69
2021/06/24 14:26:00;;;;;;;6.30;5.70;;;;;;;26.49;56.42;100250.52;1997846;89;29888;-69
2021/06/24 14:29:04;;;;;;;11.90;6.17;;;;;;;26.54;56.24;100255.48;1997378;89;31856;-67
2021/06/24 14:32:07;;;;;;;19.15;13.32;;;;;;;26.52;56.19;100247.95;1978684;89;32388;-71
2021/06/24 14:35:12;;;;;;;7.50;6.70;;;;;;;26.46;56.42;100242.66;2000016;89;29356;-69
2021/06/24 14:38:19;;;;;;;9.68;6.30;;;;;;;26.41;56.72;100247.84;1983901;89;27604;-72
2021/06/24 14:41:25;;;;;;;7.15;6.40;;;;;;;26.34;56.76;100253.70;1965587;89;27553;-67
2021/06/24 14:44:27;;;;;;;6.58;5.37;;;;;;;26.30;56.80;100246.89;1966895;90;31191;-74
2021/06/24 14:47:29;;;;;;;6.28;5.67;;;;;;;26.26;56.71;100245.00;1972099;89;34242;-75
2021/06/24 14:50:31;;;;;;;7.62;6.15;;;;;;;26.23;56.84;100242.11;1999616;89;30308;-65
2021/06/24 14:53:35;;;;;;;7.28;6.45;;;;;;;26.14;56.48;100236.34;1997796;89;27513;-66
2021/06/24 14:56:38;;;;;;;9.10;6.62;;;;;;;26.06;56.97;100234.95;1992432;89;27560;-63
2021/06/24 14:59:41;;;;;;;11.03;7.12;;;;;;;26.02;57.13;100229.48;1989906;89;31035;-63
2021/06/24 15:02:57;;;;;;;10.82;6.50;;;;;;;25.98;57.58;100228.16;2020270;87;33022;-66
2021/06/24 15:06:46;;;;;;;9.98;7.33;;;;;;;25.90;57.55;100224.40;1995434;87;27552;-62
2021/06/24 15:09:22;;;;;;;8.90;7.03;;;;;;;25.84;57.43;100225.10;1962018;87;27557;-64
2021/06/24 15:12:20;;;;;;;10.32;7.55;;;;;;;25.74;57.47;100232.70;2003905;86;27582;-64
2021/06/24 15:15:23;;;;;;;8.35;7.55;;;;;;;25.64;57.43;100221.94;1981401;88;31018;-63
2021/06/24 15:18:25;;;;;;;7.83;7.10;;;;;;;25.56;57.58;100223.35;1988603;88;33043;-63